sensor_id;sensor_type;location;lat;lon;timestamp;pressure;altitude;pressure_sealevel;temperature;humidity
21863;BME280;11096;51.338;12.524;2022-11-06T00:00:12;100521.13;;;3.86;nan
21863;BME280;11096;51.338;12.524;2022-11-06T00:02:38;100510.16;;;3.81;nan
21863;BME280;11096;51.338;12.524;2022-11-06T00:05:03;100512.06;;;3.76;nan
21863;BME280;11096;51.338;12.524;2022-11-06T00:07:47;100515.72;;;3.69;nan
21863;BME280;11096;51.338;12.524;2022-11-06T00:10:13;100515.13;;;3.62;nan
21863;BME280;11096;51.338;12.524;2022-11-06T00:12:39;100509.91;;;3.63;nan
21863;BME280;11096;51.338;12.524;2022-11-06T00:15:05;100503.78;;;3.68;nan
21863;BME280;11096;51.338;12.524;2022-11-06T00:17:30;100504.19;;;3.55;nan
21863;BME280;11096;51.338;12.524;2022-11-06T00:19:56;100503.78;;;3.68;nan
21863;BME280;11096;51.338;12.524;2022-11-06T00:22:21;100508.63;;;3.77;nan
21863;BME280;11096;51.338;12.524;2022-11-06T00:24:46;100505.97;;;3.53;nan
21863;BME280;11096;51.338;12.524;2022-11-06T00:27:13;100515.69;;;3.45;nan
21863;BME280;11096;51.338;12.524;2022-11-06T00:29:38;100506.22;;;3.20;nan
21863;BME280;11096;51.338;12.524;2022-11-06T00:32:04;100516.09;;;3.33;nan
21863;BME280;11096;51.338;12.524;2022-11-06T00:34:29;100513.00;;;3.48;nan
21863;BME280;11096;51.338;12.524;2022-11-06T00:36:54;100513.50;;;3.59;nan
21863;BME280;11096;51.338;12.524;2022-11-06T00:39:19;100506.56;;;3.61;nan
21863;BME280;11096;51.338;12.524;2022-11-06T00:41:45;100506.41;;;3.66;nan
21863;BME280;11096;51.338;12.524;2022-11-06T00:44:10;100508.50;;;3.55;nan
21863;BME280;11096;51.338;12.524;2022-11-06T00:46:36;100508.34;;;3.59;nan
21863;BME280;11096;51.338;12.524;2022-11-06T00:49:01;100502.16;;;3.65;nan
21863;BME280;11096;51.338;12.524;2022-11-06T00:51:32;100502.72;;;3.73;nan
21863;BME280;11096;51.338;12.524;2022-11-06T00:54:00;100495.84;;;3.74;nan
21863;BME280;11096;51.338;12.524;2022-11-06T00:56:26;100495.16;;;3.69;nan
21863;BME280;11096;51.338;12.524;2022-11-06T00:58:52;100497.31;;;3.56;nan
21863;BME280;11096;51.338;12.524;2022-11-06T01:03:51;100490.97;;;3.41;nan
21863;BME280;11096;51.338;12.524;2022-11-06T01:06:20;100500.31;;;3.43;nan
21863;BME280;11096;51.338;12.524;2022-11-06T01:08:47;100491.25;;;3.33;nan
21863;BME280;11096;51.338;12.524;2022-11-06T01:11:18;100499.13;;;3.27;nan
21863;BME280;11096;51.338;12.524;2022-11-06T01:13:44;100492.88;;;3.36;nan
21863;BME280;11096;51.338;12.524;2022-11-06T01:16:13;100495.47;;;3.34;nan
21863;BME280;11096;51.338;12.524;2022-11-06T01:18:40;100495.31;;;3.39;nan
21863;BME280;11096;51.338;12.524;2022-11-06T01:21:11;100492.06;;;3.34;nan
21863;BME280;11096;51.338;12.524;2022-11-06T01:23:36;100486.94;;;3.34;nan
21863;BME280;11096;51.338;12.524;2022-11-06T01:26:06;100493.06;;;3.30;nan
21863;BME280;11096;51.338;12.524;2022-11-06T01:28:32;100486.94;;;3.34;nan
21863;BME280;11096;51.338;12.524;2022-11-06T01:31:02;100491.50;;;3.26;nan
21863;BME280;11096;51.338;12.524;2022-11-06T01:33:28;100489.53;;;3.32;nan
21863;BME280;11096;51.338;12.524;2022-11-06T01:35:53;100492.19;;;3.31;nan
21863;BME280;11096;51.338;12.524;2022-11-06T01:38:18;100488.44;;;3.39;nan
21863;BME280;11096;51.338;12.524;2022-11-06T01:40:46;100488.25;;;3.46;nan
21863;BME280;11096;51.338;12.524;2022-11-06T01:43:18;100488.31;;;3.44;nan
21863;BME280;11096;51.338;12.524;2022-11-06T01:45:47;100484.75;;;3.48;nan
21863;BME280;11096;51.338;12.524;2022-11-06T01:48:13;100483.66;;;3.55;nan
21863;BME280;11096;51.338;12.524;2022-11-06T01:50:42;100478.69;;;3.49;nan
21863;BME280;11096;51.338;12.524;2022-11-06T01:53:09;100473.78;;;3.43;nan
21863;BME280;11096;51.338;12.524;2022-11-06T01:55:38;100474.94;;;3.34;nan
21863;BME280;11096;51.338;12.524;2022-11-06T01:58:06;100477.56;;;3.33;nan
21863;BME280;11096;51.338;12.524;2022-11-06T02:00:33;100463.50;;;3.43;nan
21863;BME280;11096;51.338;12.524;2022-11-06T02:02:59;100460.25;;;3.38;nan
21863;BME280;11096;51.338;12.524;2022-11-06T02:05:25;100462.88;;;3.36;nan
21863;BME280;11096;51.338;12.524;2022-11-06T02:07:52;100452.19;;;3.23;nan
21863;BME280;11096;51.338;12.524;2022-11-06T02:10:17;100453.97;;;3.21;nan
21863;BME280;11096;51.338;12.524;2022-11-06T02:12:49;100453.41;;;3.12;nan
21863;BME280;11096;51.338;12.524;2022-11-06T02:26:23;100454.88;;;2.94;nan
21863;BME280;11096;51.338;12.524;2022-11-06T02:29:00;100445.72;;;2.85;nan
21863;BME280;11096;51.338;12.524;2022-11-06T02:31:30;100440.00;;;2.77;nan
21863;BME280;11096;51.338;12.524;2022-11-06T02:34:09;100431.66;;;2.97;nan
21863;BME280;11096;51.338;12.524;2022-11-06T02:36:41;100431.63;;;2.98;nan
21863;BME280;11096;51.338;12.524;2022-11-06T02:39:11;100427.69;;;2.88;nan
21863;BME280;11096;51.338;12.524;2022-11-06T02:41:43;100426.25;;;2.79;nan
21863;BME280;11096;51.338;12.524;2022-11-06T02:44:14;100422.19;;;2.72;nan
21863;BME280;11096;51.338;12.524;2022-11-06T02:46:46;100424.56;;;2.78;nan
21863;BME280;11096;51.338;12.524;2022-11-06T02:49:37;100423.88;;;2.73;nan
21863;BME280;11096;51.338;12.524;2022-11-06T02:52:10;100428.75;;;2.81;nan
21863;BME280;11096;51.338;12.524;2022-11-06T02:54:40;100420.84;;;2.87;nan
21863;BME280;11096;51.338;12.524;2022-11-06T02:57:09;100429.59;;;2.82;nan
21863;BME280;11096;51.338;12.524;2022-11-06T02:59:45;100426.75;;;2.91;nan
21863;BME280;11096;51.338;12.524;2022-11-06T03:02:19;100425.53;;;3.01;nan
21863;BME280;11096;51.338;12.524;2022-11-06T03:04:53;100428.78;;;3.06;nan
21863;BME280;11096;51.338;12.524;2022-11-06T03:07:36;100429.22;;;3.19;nan
21863;BME280;11096;51.338;12.524;2022-11-06T03:10:05;100428.28;;;3.21;nan
21863;BME280;11096;51.338;12.524;2022-11-06T03:12:34;100430.72;;;3.25;nan
21863;BME280;11096;51.338;12.524;2022-11-06T03:17:41;100440.13;;;3.26;nan
21863;BME280;11096;51.338;12.524;2022-11-06T03:20:40;100436.63;;;3.28;nan
21863;BME280;11096;51.338;12.524;2022-11-06T03:23:21;100438.28;;;3.29;nan
21863;BME280;11096;51.338;12.524;2022-11-06T03:28:37;100434.66;;;3.10;nan
21863;BME280;11096;51.338;12.524;2022-11-06T03:31:08;100431.09;;;3.14;nan
21863;BME280;11096;51.338;12.524;2022-11-06T03:33:57;100433.28;;;3.25;nan
21863;BME280;11096;51.338;12.524;2022-11-06T03:36:25;100433.09;;;3.31;nan
21863;BME280;11096;51.338;12.524;2022-11-06T03:39:00;100425.97;;;3.39;nan
21863;BME280;11096;51.338;12.524;2022-11-06T03:41:34;100424.97;;;3.43;nan
21863;BME280;11096;51.338;12.524;2022-11-06T03:44:04;100424.84;;;3.46;nan
21863;BME280;11096;51.338;12.524;2022-11-06T03:46:31;100427.53;;;3.43;nan
21863;BME280;11096;51.338;12.524;2022-11-06T03:49:04;100427.59;;;3.41;nan
21863;BME280;11096;51.338;12.524;2022-11-06T03:54:05;100420.16;;;3.34;nan
21863;BME280;11096;51.338;12.524;2022-11-06T03:56:38;100422.72;;;3.34;nan
21863;BME280;11096;51.338;12.524;2022-11-06T03:59:06;100421.13;;;3.30;nan
21863;BME280;11096;51.338;12.524;2022-11-06T04:01:36;100414.22;;;3.32;nan
21863;BME280;11096;51.338;12.524;2022-11-06T04:04:04;100419.69;;;3.22;nan
21863;BME280;11096;51.338;12.524;2022-11-06T04:06:32;100421.72;;;3.13;nan
21863;BME280;11096;51.338;12.524;2022-11-06T04:09:03;100419.78;;;3.19;nan
21863;BME280;11096;51.338;12.524;2022-11-06T04:11:49;100418.63;;;3.28;nan
21863;BME280;11096;51.338;12.524;2022-11-06T04:14:36;100417.69;;;3.31;nan
21863;BME280;11096;51.338;12.524;2022-11-06T04:17:06;100417.53;;;3.35;nan
21863;BME280;11096;51.338;12.524;2022-11-06T04:19:33;100420.94;;;3.36;nan
21863;BME280;11096;51.338;12.524;2022-11-06T04:22:20;100416.53;;;3.39;nan
21863;BME280;11096;51.338;12.524;2022-11-06T04:30:14;100399.03;;;3.26;nan
21863;BME280;11096;51.338;12.524;2022-11-06T04:32:53;100406.63;;;3.29;nan
21863;BME280;11096;51.338;12.524;2022-11-06T04:38:11;100406.75;;;3.26;nan
21863;BME280;11096;51.338;12.524;2022-11-06T04:43:26;100399.72;;;3.31;nan
21863;BME280;11096;51.338;12.524;2022-11-06T04:45:55;100399.47;;;3.37;nan
21863;BME280;11096;51.338;12.524;2022-11-06T04:48:24;100400.16;;;3.42;nan
21863;BME280;11096;51.338;12.524;2022-11-06T04:53:19;100395.94;;;3.41;nan
21863;BME280;11096;51.338;12.524;2022-11-06T04:55:53;100385.66;;;3.41;nan
21863;BME280;11096;51.338;12.524;2022-11-06T04:58:18;100386.56;;;3.40;nan
21863;BME280;11096;51.338;12.524;2022-11-06T05:00:47;100388.25;;;3.39;nan
21863;BME280;11096;51.338;12.524;2022-11-06T05:03:13;100383.19;;;3.38;nan
21863;BME280;11096;51.338;12.524;2022-11-06T05:05:39;100384.19;;;3.34;nan
21863;BME280;11096;51.338;12.524;2022-11-06T05:08:05;100377.53;;;3.28;nan
21863;BME280;11096;51.338;12.524;2022-11-06T05:10:31;100370.72;;;3.27;nan
21863;BME280;11096;51.338;12.524;2022-11-06T05:12:56;100367.19;;;3.30;nan
21863;BME280;11096;51.338;12.524;2022-11-06T05:15:21;100375.97;;;3.24;nan
21863;BME280;11096;51.338;12.524;2022-11-06T05:17:47;100368.09;;;3.29;nan
21863;BME280;11096;51.338;12.524;2022-11-06T05:20:12;100368.09;;;3.29;nan
21863;BME280;11096;51.338;12.524;2022-11-06T05:22:41;100368.16;;;3.27;nan
21863;BME280;11096;51.338;12.524;2022-11-06T05:25:22;100380.16;;;3.27;nan
21863;BME280;11096;51.338;12.524;2022-11-06T05:27:47;100367.44;;;3.23;nan
21863;BME280;11096;51.338;12.524;2022-11-06T05:30:13;100367.31;;;3.27;nan
21863;BME280;11096;51.338;12.524;2022-11-06T05:32:38;100373.41;;;3.24;nan
21863;BME280;11096;51.338;12.524;2022-11-06T05:35:04;100364.75;;;3.27;nan
21863;BME280;11096;51.338;12.524;2022-11-06T05:37:29;100361.34;;;3.26;nan
21863;BME280;11096;51.338;12.524;2022-11-06T05:39:54;100363.09;;;3.26;nan
21863;BME280;11096;51.338;12.524;2022-11-06T05:42:20;100353.47;;;3.31;nan
21863;BME280;11096;51.338;12.524;2022-11-06T05:44:45;100365.38;;;3.33;nan
21863;BME280;11096;51.338;12.524;2022-11-06T05:47:10;100360.94;;;3.37;nan
21863;BME280;11096;51.338;12.524;2022-11-06T05:49:36;100365.22;;;3.38;nan
21863;BME280;11096;51.338;12.524;2022-11-06T05:52:01;100355.13;;;3.32;nan
21863;BME280;11096;51.338;12.524;2022-11-06T05:54:27;100359.28;;;3.36;nan
21863;BME280;11096;51.338;12.524;2022-11-06T05:56:52;100363.53;;;3.37;nan
21863;BME280;11096;51.338;12.524;2022-11-06T05:59:17;100368.81;;;3.32;nan
21863;BME280;11096;51.338;12.524;2022-11-06T06:01:43;100366.03;;;3.38;nan
21863;BME280;11096;51.338;12.524;2022-11-06T06:04:08;100365.34;;;3.35;nan
21863;BME280;11096;51.338;12.524;2022-11-06T06:06:33;100372.13;;;3.36;nan
21863;BME280;11096;51.338;12.524;2022-11-06T06:08:59;100377.94;;;3.41;nan
21863;BME280;11096;51.338;12.524;2022-11-06T06:11:24;100380.56;;;3.39;nan
21863;BME280;11096;51.338;12.524;2022-11-06T06:13:50;100379.69;;;3.40;nan
21863;BME280;11096;51.338;12.524;2022-11-06T06:16:15;100374.44;;;3.43;nan
21863;BME280;11096;51.338;12.524;2022-11-06T06:18:40;100377.75;;;3.47;nan
21863;BME280;11096;51.338;12.524;2022-11-06T06:21:06;100391.34;;;3.49;nan
21863;BME280;11096;51.338;12.524;2022-11-06T06:23:31;100394.69;;;3.51;nan
21863;BME280;11096;51.338;12.524;2022-11-06T06:25:56;100393.75;;;3.54;nan
21863;BME280;11096;51.338;12.524;2022-11-06T06:28:22;100394.69;;;3.51;nan
21863;BME280;11096;51.338;12.524;2022-11-06T06:30:47;100393.81;;;3.52;nan
21863;BME280;11096;51.338;12.524;2022-11-06T06:33:12;100400.88;;;3.47;nan
21863;BME280;11096;51.338;12.524;2022-11-06T06:35:38;100406.66;;;3.52;nan
21863;BME280;11096;51.338;12.524;2022-11-06T06:38:03;100404.97;;;3.51;nan
21863;BME280;11096;51.338;12.524;2022-11-06T06:40:29;100413.59;;;3.50;nan
21863;BME280;11096;51.338;12.524;2022-11-06T06:42:55;100418.72;;;3.50;nan
21863;BME280;11096;51.338;12.524;2022-11-06T06:45:21;100415.25;;;3.51;nan
21863;BME280;11096;51.338;12.524;2022-11-06T06:47:46;100412.56;;;3.54;nan
21863;BME280;11096;51.338;12.524;2022-11-06T06:50:12;100411.56;;;3.58;nan
21863;BME280;11096;51.338;12.524;2022-11-06T06:52:37;100420.78;;;3.64;nan
21863;BME280;11096;51.338;12.524;2022-11-06T06:55:03;100422.41;;;3.66;nan
21863;BME280;11096;51.338;12.524;2022-11-06T06:57:29;100416.16;;;3.74;nan
21863;BME280;11096;51.338;12.524;2022-11-06T06:59:54;100413.38;;;3.80;nan
21863;BME280;11096;51.338;12.524;2022-11-06T07:02:19;100419.97;;;3.87;nan
21863;BME280;11096;51.338;12.524;2022-11-06T07:04:45;100422.25;;;3.95;nan
21863;BME280;11096;51.338;12.524;2022-11-06T07:07:10;100424.59;;;4.01;nan
21863;BME280;11096;51.338;12.524;2022-11-06T07:09:35;100420.13;;;4.06;nan
21863;BME280;11096;51.338;12.524;2022-11-06T07:12:01;100422.44;;;4.14;nan
21863;BME280;11096;51.338;12.524;2022-11-06T07:14:26;100422.13;;;4.21;nan
21863;BME280;11096;51.338;12.524;2022-11-06T07:16:52;100416.72;;;4.27;nan
21863;BME280;11096;51.338;12.524;2022-11-06T07:19:18;100424.28;;;4.32;nan
21863;BME280;11096;51.338;12.524;2022-11-06T07:21:43;100417.22;;;4.37;nan
21863;BME280;11096;51.338;12.524;2022-11-06T07:24:09;100424.75;;;4.42;nan
21863;BME280;11096;51.338;12.524;2022-11-06T07:26:34;100418.47;;;4.49;nan
21863;BME280;11096;51.338;12.524;2022-11-06T07:29:00;100426.81;;;4.56;nan
21863;BME280;11096;51.338;12.524;2022-11-06T07:31:25;100420.53;;;4.63;nan
21863;BME280;11096;51.338;12.524;2022-11-06T07:33:50;100416.78;;;4.70;nan
21863;BME280;11096;51.338;12.524;2022-11-06T07:36:16;100417.19;;;4.81;nan
21863;BME280;11096;51.338;12.524;2022-11-06T07:38:42;100416.88;;;4.89;nan
21863;BME280;11096;51.338;12.524;2022-11-06T07:41:10;100414.75;;;4.99;nan
21863;BME280;11096;51.338;12.524;2022-11-06T07:43:36;100416.22;;;5.04;nan
21863;BME280;11096;51.338;12.524;2022-11-06T07:46:03;100413.28;;;5.13;nan
21863;BME280;11096;51.338;12.524;2022-11-06T07:48:30;100403.56;;;5.20;nan
21863;BME280;11096;51.338;12.524;2022-11-06T07:50:56;100406.50;;;5.31;nan
21863;BME280;11096;51.338;12.524;2022-11-06T07:53:22;100400.13;;;5.40;nan
21863;BME280;11096;51.338;12.524;2022-11-06T07:55:52;100398.75;;;5.52;nan
21863;BME280;11096;51.338;12.524;2022-11-06T07:58:18;100404.34;;;5.62;nan
21863;BME280;11096;51.338;12.524;2022-11-06T08:00:54;100397.09;;;5.70;nan
21863;BME280;11096;51.338;12.524;2022-11-06T08:03:20;100407.84;;;5.79;nan
21863;BME280;11096;51.338;12.524;2022-11-06T08:05:46;100395.38;;;5.89;nan
21863;BME280;11096;51.338;12.524;2022-11-06T08:08:11;100397.47;;;6.00;nan
21863;BME280;11096;51.338;12.524;2022-11-06T08:10:38;100389.78;;;6.17;nan
21863;BME280;11096;51.338;12.524;2022-11-06T08:13:11;100388.50;;;6.28;nan
21863;BME280;11096;51.338;12.524;2022-11-06T08:15:37;100392.38;;;6.36;nan
21863;BME280;11096;51.338;12.524;2022-11-06T08:18:03;100383.41;;;6.43;nan
21863;BME280;11096;51.338;12.524;2022-11-06T08:20:29;100377.06;;;6.51;nan
21863;BME280;11096;51.338;12.524;2022-11-06T08:23:02;100387.44;;;6.49;nan
21863;BME280;11096;51.338;12.524;2022-11-06T08:25:29;100373.47;;;6.53;nan
21863;BME280;11096;51.338;12.524;2022-11-06T08:27:55;100374.53;;;6.66;nan
21863;BME280;11096;51.338;12.524;2022-11-06T08:30:21;100372.94;;;6.64;nan
21863;BME280;11096;51.338;12.524;2022-11-06T08:32:47;100374.09;;;6.76;nan
21863;BME280;11096;51.338;12.524;2022-11-06T08:35:12;100375.78;;;6.94;nan
21863;BME280;11096;51.338;12.524;2022-11-06T08:37:37;100376.22;;;7.02;nan
21863;BME280;11096;51.338;12.524;2022-11-06T08:40:03;100372.44;;;7.09;nan
21863;BME280;11096;51.338;12.524;2022-11-06T08:42:29;100372.28;;;7.28;nan
21863;BME280;11096;51.338;12.524;2022-11-06T08:44:54;100378.94;;;7.34;nan
21863;BME280;11096;51.338;12.524;2022-11-06T08:47:19;100366.25;;;7.45;nan
21863;BME280;11096;51.338;12.524;2022-11-06T08:49:45;100368.69;;;7.48;nan
21863;BME280;11096;51.338;12.524;2022-11-06T08:52:10;100374.38;;;7.55;nan
21863;BME280;11096;51.338;12.524;2022-11-06T08:54:35;100368.47;;;7.69;nan
21863;BME280;11096;51.338;12.524;2022-11-06T08:57:00;100360.72;;;7.85;nan
21863;BME280;11096;51.338;12.524;2022-11-06T08:59:26;100357.72;;;7.92;nan
21863;BME280;11096;51.338;12.524;2022-11-06T09:01:52;100361.88;;;8.11;nan
21863;BME280;11096;51.338;12.524;2022-11-06T09:04:17;100362.72;;;8.11;nan
21863;BME280;11096;51.338;12.524;2022-11-06T09:06:43;100350.22;;;8.20;nan
21863;BME280;11096;51.338;12.524;2022-11-06T09:09:08;100343.66;;;8.28;nan
21863;BME280;11096;51.338;12.524;2022-11-06T09:11:34;100350.34;;;8.48;nan
21863;BME280;11096;51.338;12.524;2022-11-06T09:13:59;100341.53;;;8.81;nan
21863;BME280;11096;51.338;12.524;2022-11-06T09:16:25;100336.09;;;9.00;nan
21863;BME280;11096;51.338;12.524;2022-11-06T09:18:53;100325.38;;;9.20;nan
21863;BME280;11096;51.338;12.524;2022-11-06T09:21:19;100330.41;;;9.38;nan
21863;BME280;11096;51.338;12.524;2022-11-06T09:23:45;100333.06;;;9.51;nan
21863;BME280;11096;51.338;12.524;2022-11-06T09:26:13;100325.09;;;9.54;nan
21863;BME280;11096;51.338;12.524;2022-11-06T09:28:38;100325.88;;;9.83;nan
21863;BME280;11096;51.338;12.524;2022-11-06T09:31:03;100320.78;;;10.08;nan
21863;BME280;11096;51.338;12.524;2022-11-06T09:33:29;100312.63;;;10.15;nan
21863;BME280;11096;51.338;12.524;2022-11-06T09:35:54;100312.47;;;10.03;nan
21863;BME280;11096;51.338;12.524;2022-11-06T09:38:19;100308.59;;;9.96;nan
21863;BME280;11096;51.338;12.524;2022-11-06T09:40:48;100306.88;;;10.09;nan
21863;BME280;11096;51.338;12.524;2022-11-06T09:45:52;100295.81;;;9.93;nan
21863;BME280;11096;51.338;12.524;2022-11-06T09:50:55;100304.41;;;9.94;nan
21863;BME280;11096;51.338;12.524;2022-11-06T09:53:35;100305.13;;;9.83;nan
21863;BME280;11096;51.338;12.524;2022-11-06T09:56:04;100294.03;;;9.66;nan
21863;BME280;11096;51.338;12.524;2022-11-06T09:58:37;100310.06;;;9.73;nan
21863;BME280;11096;51.338;12.524;2022-11-06T10:01:22;100293.22;;;9.93;nan
21863;BME280;11096;51.338;12.524;2022-11-06T10:03:57;100295.19;;;9.89;nan
21863;BME280;11096;51.338;12.524;2022-11-06T10:06:23;100287.22;;;10.05;nan
21863;BME280;11096;51.338;12.524;2022-11-06T10:08:51;100284.13;;;10.13;nan
21863;BME280;11096;51.338;12.524;2022-11-06T10:13:54;100283.03;;;10.17;nan
21863;BME280;11096;51.338;12.524;2022-11-06T10:24:20;100276.03;;;10.05;nan
21863;BME280;11096;51.338;12.524;2022-11-06T10:26:50;100274.84;;;9.96;nan
21863;BME280;11096;51.338;12.524;2022-11-06T10:35:02;100259.91;;;10.00;nan
21863;BME280;11096;51.338;12.524;2022-11-06T10:37:45;100263.72;;;9.94;nan
21863;BME280;11096;51.338;12.524;2022-11-06T10:40:23;100260.88;;;10.12;nan
21863;BME280;11096;51.338;12.524;2022-11-06T10:42:57;100261.19;;;10.07;nan
21863;BME280;11096;51.338;12.524;2022-11-06T10:45:25;100254.53;;;10.16;nan
21863;BME280;11096;51.338;12.524;2022-11-06T10:48:01;100260.91;;;10.24;nan
21863;BME280;11096;51.338;12.524;2022-11-06T10:50:44;100248.22;;;10.20;nan
21863;BME280;11096;51.338;12.524;2022-11-06T10:53:26;100250.53;;;10.24;nan
21863;BME280;11096;51.338;12.524;2022-11-06T10:56:26;100245.06;;;10.29;nan
21863;BME280;11096;51.338;12.524;2022-11-06T10:58:56;100235.72;;;10.39;nan
21863;BME280;11096;51.338;12.524;2022-11-06T11:01:21;100231.97;;;10.43;nan
21863;BME280;11096;51.338;12.524;2022-11-06T11:03:47;100234.69;;;10.67;nan
21863;BME280;11096;51.338;12.524;2022-11-06T11:06:14;100222.22;;;10.60;nan
21863;BME280;11096;51.338;12.524;2022-11-06T11:08:42;100222.00;;;10.63;nan
21863;BME280;11096;51.338;12.524;2022-11-06T11:13:49;100218.66;;;10.61;nan
21863;BME280;11096;51.338;12.524;2022-11-06T11:16:31;100215.34;;;10.71;nan
21863;BME280;11096;51.338;12.524;2022-11-06T11:19:40;100213.28;;;10.64;nan
21863;BME280;11096;51.338;12.524;2022-11-06T11:22:19;100207.84;;;10.80;nan
21863;BME280;11096;51.338;12.524;2022-11-06T11:25:05;100204.00;;;10.85;nan
21863;BME280;11096;51.338;12.524;2022-11-06T11:27:36;100188.72;;;10.93;nan
21863;BME280;11096;51.338;12.524;2022-11-06T11:30:04;100181.19;;;11.02;nan
21863;BME280;11096;51.338;12.524;2022-11-06T11:32:29;100184.06;;;11.23;nan
21863;BME280;11096;51.338;12.524;2022-11-06T11:34:55;100181.03;;;11.53;nan
21863;BME280;11096;51.338;12.524;2022-11-06T11:39:47;100175.66;;;11.91;nan
21863;BME280;11096;51.338;12.524;2022-11-06T11:42:29;100174.75;;;12.03;nan
21863;BME280;11096;51.338;12.524;2022-11-06T11:47:44;100165.31;;;12.14;nan
21863;BME280;11096;51.338;12.524;2022-11-06T11:50:27;100168.50;;;12.06;nan
21863;BME280;11096;51.338;12.524;2022-11-06T11:53:06;100167.34;;;12.21;nan
21863;BME280;11096;51.338;12.524;2022-11-06T11:55:42;100150.41;;;12.27;nan
21863;BME280;11096;51.338;12.524;2022-11-06T11:58:17;100141.66;;;12.28;nan
21863;BME280;11096;51.338;12.524;2022-11-06T12:00:54;100137.25;;;12.29;nan
21863;BME280;11096;51.338;12.524;2022-11-06T12:03:21;100132.31;;;12.48;nan
21863;BME280;11096;51.338;12.524;2022-11-06T12:05:48;100123.03;;;12.66;nan
21863;BME280;11096;51.338;12.524;2022-11-06T12:08:22;100118.88;;;12.30;nan
21863;BME280;11096;51.338;12.524;2022-11-06T12:10:49;100115.81;;;12.48;nan
21863;BME280;11096;51.338;12.524;2022-11-06T12:13:23;100114.41;;;12.43;nan
21863;BME280;11096;51.338;12.524;2022-11-06T12:16:17;100125.53;;;12.34;nan
21863;BME280;11096;51.338;12.524;2022-11-06T12:18:47;100107.66;;;12.30;nan
21863;BME280;11096;51.338;12.524;2022-11-06T12:21:23;100116.28;;;12.19;nan
21863;BME280;11096;51.338;12.524;2022-11-06T12:24:06;100100.91;;;12.16;nan
21863;BME280;11096;51.338;12.524;2022-11-06T12:26:42;100104.09;;;12.42;nan
21863;BME280;11096;51.338;12.524;2022-11-06T12:29:26;100105.06;;;12.41;nan
21863;BME280;11096;51.338;12.524;2022-11-06T12:34:51;100105.41;;;12.70;nan
21863;BME280;11096;51.338;12.524;2022-11-06T12:37:47;100109.06;;;12.79;nan
21863;BME280;11096;51.338;12.524;2022-11-06T12:40:27;100100.97;;;12.82;nan
21863;BME280;11096;51.338;12.524;2022-11-06T12:43:45;100097.69;;;12.80;nan
21863;BME280;11096;51.338;12.524;2022-11-06T12:45:59;100091.97;;;12.86;nan
21863;BME280;11096;51.338;12.524;2022-11-06T12:51:31;100080.16;;;12.71;nan
21863;BME280;11096;51.338;12.524;2022-11-06T13:00:15;100051.16;;;12.41;nan
21863;BME280;11096;51.338;12.524;2022-11-06T13:05:36;100046.88;;;12.29;nan
21863;BME280;11096;51.338;12.524;2022-11-06T13:11:21;100054.81;;;12.39;nan
21863;BME280;11096;51.338;12.524;2022-11-06T13:14:23;100054.72;;;12.40;nan
21863;BME280;11096;51.338;12.524;2022-11-06T13:19:41;100039.56;;;12.45;nan
21863;BME280;11096;51.338;12.524;2022-11-06T13:22:18;100035.16;;;12.46;nan
21863;BME280;11096;51.338;12.524;2022-11-06T13:25:03;100035.88;;;12.48;nan
21863;BME280;11096;51.338;12.524;2022-11-06T13:30:17;100029.13;;;12.45;nan
21863;BME280;11096;51.338;12.524;2022-11-06T13:32:47;100019.53;;;12.46;nan
21863;BME280;11096;51.338;12.524;2022-11-06T13:35:16;100020.00;;;12.29;nan
21863;BME280;11096;51.338;12.524;2022-11-06T13:37:46;100020.25;;;12.14;nan
21863;BME280;11096;51.338;12.524;2022-11-06T13:40:22;100015.63;;;12.07;nan
21863;BME280;11096;51.338;12.524;2022-11-06T13:42:59;100009.47;;;12.08;nan
21863;BME280;11096;51.338;12.524;2022-11-06T13:45:26;99998.06;;;11.86;nan
21863;BME280;11096;51.338;12.524;2022-11-06T13:48:02;99997.69;;;11.57;nan
21863;BME280;11096;51.338;12.524;2022-11-06T13:50:41;99993.13;;;11.25;nan
21863;BME280;11096;51.338;12.524;2022-11-06T13:53:19;99987.00;;;11.37;nan
21863;BME280;11096;51.338;12.524;2022-11-06T14:07:26;99974.91;;;10.66;nan
21863;BME280;11096;51.338;12.524;2022-11-06T14:09:53;99975.41;;;10.71;nan
21863;BME280;11096;51.338;12.524;2022-11-06T14:12:21;99971.47;;;10.65;nan
21863;BME280;11096;51.338;12.524;2022-11-06T14:14:47;99969.75;;;10.53;nan
21863;BME280;11096;51.338;12.524;2022-11-06T14:22:26;99950.13;;;10.12;nan
21863;BME280;11096;51.338;12.524;2022-11-06T14:24:52;99953.88;;;9.95;nan
21863;BME280;11096;51.338;12.524;2022-11-06T14:34:47;99952.34;;;9.80;nan
21863;BME280;11096;51.338;12.524;2022-11-06T14:44:52;99931.50;;;9.56;nan
21863;BME280;11096;51.338;12.524;2022-11-06T14:49:52;99926.41;;;9.41;nan
21863;BME280;11096;51.338;12.524;2022-11-06T14:52:18;99923.09;;;9.39;nan
21863;BME280;11096;51.338;12.524;2022-11-06T14:55:02;99919.06;;;9.35;nan
21863;BME280;11096;51.338;12.524;2022-11-06T14:57:50;99935.53;;;9.34;nan
21863;BME280;11096;51.338;12.524;2022-11-06T15:03:01;99929.31;;;9.24;nan
21863;BME280;11096;51.338;12.524;2022-11-06T15:05:28;99922.97;;;9.15;nan
21863;BME280;11096;51.338;12.524;2022-11-06T15:07:57;99925.16;;;9.09;nan
21863;BME280;11096;51.338;12.524;2022-11-06T15:15:43;99914.53;;;8.86;nan
21863;BME280;11096;51.338;12.524;2022-11-06T15:18:11;99919.88;;;8.70;nan
21863;BME280;11096;51.338;12.524;2022-11-06T15:20:39;99916.75;;;8.65;nan
21863;BME280;11096;51.338;12.524;2022-11-06T15:23:20;99914.63;;;8.45;nan
21863;BME280;11096;51.338;12.524;2022-11-06T15:25:56;99911.53;;;8.11;nan
21863;BME280;11096;51.338;12.524;2022-11-06T15:28:27;99910.25;;;7.75;nan
21863;BME280;11096;51.338;12.524;2022-11-06T15:31:03;99905.34;;;7.85;nan
21863;BME280;11096;51.338;12.524;2022-11-06T15:33:34;99906.22;;;7.85;nan